sensor_id;sensor_type;location;lat;lon;timestamp;P1;durP1;ratioP1;P2;durP2;ratioP2
29548;SDS011;16487;53.094;8.800;2023-06-22T00:00:04;6.97;;;5.00;;
29548;SDS011;16487;53.094;8.800;2023-06-22T00:02:59;5.80;;;5.20;;
29548;SDS011;16487;53.094;8.800;2023-06-22T00:05:47;6.80;;;6.10;;
29548;SDS011;16487;53.094;8.800;2023-06-22T00:08:36;6.70;;;6.00;;
29548;SDS011;16487;53.094;8.800;2023-06-22T00:11:23;6.60;;;6.00;;
29548;SDS011;16487;53.094;8.800;2023-06-22T00:14:11;6.60;;;5.97;;
29548;SDS011;16487;53.094;8.800;2023-06-22T00:16:59;6.07;;;5.53;;
29548;SDS011;16487;53.094;8.800;2023-06-22T00:19:48;6.03;;;5.43;;
29548;SDS011;16487;53.094;8.800;2023-06-22T00:22:36;5.43;;;4.93;;
29548;SDS011;16487;53.094;8.800;2023-06-22T00:25:24;5.90;;;5.27;;
29548;SDS011;16487;53.094;8.800;2023-06-22T00:28:12;6.13;;;5.37;;
29548;SDS011;16487;53.094;8.800;2023-06-22T00:31:00;6.40;;;5.80;;
29548;SDS011;16487;53.094;8.800;2023-06-22T00:33:48;6.57;;;5.43;;
29548;SDS011;16487;53.094;8.800;2023-06-22T00:36:37;7.33;;;6.03;;
29548;SDS011;16487;53.094;8.800;2023-06-22T00:39:24;5.73;;;5.23;;
29548;SDS011;16487;53.094;8.800;2023-06-22T00:42:12;6.37;;;5.60;;
29548;SDS011;16487;53.094;8.800;2023-06-22T00:45:00;6.47;;;5.83;;
29548;SDS011;16487;53.094;8.800;2023-06-22T00:47:47;6.80;;;6.10;;
29548;SDS011;16487;53.094;8.800;2023-06-22T00:50:35;5.87;;;4.90;;
29548;SDS011;16487;53.094;8.800;2023-06-22T00:53:25;7.80;;;6.03;;
29548;SDS011;16487;53.094;8.800;2023-06-22T00:56:14;7.60;;;5.77;;
29548;SDS011;16487;53.094;8.800;2023-06-22T00:59:02;7.57;;;5.60;;
29548;SDS011;16487;53.094;8.800;2023-06-22T01:01:49;6.73;;;5.73;;
29548;SDS011;16487;53.094;8.800;2023-06-22T01:04:38;9.53;;;6.43;;
29548;SDS011;16487;53.094;8.800;2023-06-22T01:07:30;6.63;;;6.00;;
29548;SDS011;16487;53.094;8.800;2023-06-22T01:10:24;7.80;;;6.87;;
29548;SDS011;16487;53.094;8.800;2023-06-22T01:13:20;6.00;;;5.40;;
29548;SDS011;16487;53.094;8.800;2023-06-22T01:16:14;7.60;;;6.10;;
29548;SDS011;16487;53.094;8.800;2023-06-22T01:19:08;7.23;;;6.00;;
29548;SDS011;16487;53.094;8.800;2023-06-22T01:22:03;6.30;;;5.67;;
29548;SDS011;16487;53.094;8.800;2023-06-22T01:24:55;7.00;;;6.30;;
29548;SDS011;16487;53.094;8.800;2023-06-22T01:28:02;6.93;;;6.27;;
29548;SDS011;16487;53.094;8.800;2023-06-22T01:31:03;6.77;;;5.60;;
29548;SDS011;16487;53.094;8.800;2023-06-22T01:33:53;9.33;;;8.17;;
29548;SDS011;16487;53.094;8.800;2023-06-22T01:36:44;8.77;;;7.00;;
29548;SDS011;16487;53.094;8.800;2023-06-22T01:39:33;7.50;;;6.70;;
29548;SDS011;16487;53.094;8.800;2023-06-22T01:42:22;7.70;;;7.00;;
29548;SDS011;16487;53.094;8.800;2023-06-22T01:45:11;6.93;;;6.23;;
29548;SDS011;16487;53.094;8.800;2023-06-22T01:48:00;9.33;;;8.33;;
29548;SDS011;16487;53.094;8.800;2023-06-22T01:50:49;7.53;;;6.53;;
29548;SDS011;16487;53.094;8.800;2023-06-22T01:53:37;11.03;;;7.97;;
29548;SDS011;16487;53.094;8.800;2023-06-22T01:56:25;10.07;;;7.87;;
29548;SDS011;16487;53.094;8.800;2023-06-22T01:59:15;8.00;;;7.00;;
29548;SDS011;16487;53.094;8.800;2023-06-22T02:02:10;8.43;;;7.13;;
29548;SDS011;16487;53.094;8.800;2023-06-22T02:05:02;9.10;;;7.10;;
29548;SDS011;16487;53.094;8.800;2023-06-22T02:07:56;8.13;;;7.03;;
29548;SDS011;16487;53.094;8.800;2023-06-22T02:10:51;8.23;;;7.43;;
29548;SDS011;16487;53.094;8.800;2023-06-22T02:13:41;9.83;;;8.07;;
29548;SDS011;16487;53.094;8.800;2023-06-22T02:16:29;9.83;;;7.30;;
29548;SDS011;16487;53.094;8.800;2023-06-22T02:19:22;11.10;;;8.80;;
29548;SDS011;16487;53.094;8.800;2023-06-22T02:22:11;10.53;;;7.40;;
29548;SDS011;16487;53.094;8.800;2023-06-22T02:24:59;10.87;;;8.07;;
29548;SDS011;16487;53.094;8.800;2023-06-22T02:27:47;11.10;;;8.13;;
29548;SDS011;16487;53.094;8.800;2023-06-22T02:30:36;9.70;;;8.17;;
29548;SDS011;16487;53.094;8.800;2023-06-22T02:33:27;13.30;;;8.80;;
29548;SDS011;16487;53.094;8.800;2023-06-22T02:36:14;13.10;;;9.03;;
29548;SDS011;16487;53.094;8.800;2023-06-22T02:39:03;9.80;;;8.80;;
29548;SDS011;16487;53.094;8.800;2023-06-22T02:41:52;11.07;;;8.83;;
29548;SDS011;16487;53.094;8.800;2023-06-22T02:44:42;9.00;;;7.30;;
29548;SDS011;16487;53.094;8.800;2023-06-22T02:47:29;11.00;;;8.73;;
29548;SDS011;16487;53.094;8.800;2023-06-22T02:50:18;10.73;;;8.70;;
29548;SDS011;16487;53.094;8.800;2023-06-22T02:53:05;9.27;;;8.20;;
29548;SDS011;16487;53.094;8.800;2023-06-22T02:55:58;9.93;;;7.97;;
29548;SDS011;16487;53.094;8.800;2023-06-22T02:58:46;12.67;;;10.00;;
29548;SDS011;16487;53.094;8.800;2023-06-22T03:01:34;9.80;;;8.33;;
29548;SDS011;16487;53.094;8.800;2023-06-22T03:04:22;15.17;;;9.57;;
29548;SDS011;16487;53.094;8.800;2023-06-22T03:07:10;13.93;;;10.30;;
29548;SDS011;16487;53.094;8.800;2023-06-22T03:09:57;12.13;;;10.17;;
29548;SDS011;16487;53.094;8.800;2023-06-22T03:12:46;14.93;;;10.50;;
29548;SDS011;16487;53.094;8.800;2023-06-22T03:15:34;11.60;;;10.40;;
29548;SDS011;16487;53.094;8.800;2023-06-22T03:18:22;16.27;;;10.00;;
29548;SDS011;16487;53.094;8.800;2023-06-22T03:21:09;13.60;;;9.97;;
29548;SDS011;16487;53.094;8.800;2023-06-22T03:23:57;11.60;;;9.57;;
29548;SDS011;16487;53.094;8.800;2023-06-22T03:26:45;13.13;;;9.77;;
29548;SDS011;16487;53.094;8.800;2023-06-22T03:29:34;10.23;;;9.10;;
29548;SDS011;16487;53.094;8.800;2023-06-22T03:32:21;14.17;;;9.93;;
29548;SDS011;16487;53.094;8.800;2023-06-22T03:35:09;10.23;;;8.00;;
29548;SDS011;16487;53.094;8.800;2023-06-22T03:37:57;12.13;;;9.67;;
29548;SDS011;16487;53.094;8.800;2023-06-22T03:40:44;10.60;;;9.17;;
29548;SDS011;16487;53.094;8.800;2023-06-22T03:43:32;12.33;;;10.90;;
29548;SDS011;16487;53.094;8.800;2023-06-22T03:46:21;14.50;;;9.97;;
29548;SDS011;16487;53.094;8.800;2023-06-22T03:49:09;11.53;;;10.30;;
29548;SDS011;16487;53.094;8.800;2023-06-22T03:51:57;13.47;;;10.07;;
29548;SDS011;16487;53.094;8.800;2023-06-22T03:54:44;13.13;;;10.03;;
29548;SDS011;16487;53.094;8.800;2023-06-22T03:57:32;11.37;;;10.10;;
29548;SDS011;16487;53.094;8.800;2023-06-22T04:00:20;13.50;;;9.50;;
29548;SDS011;16487;53.094;8.800;2023-06-22T04:03:09;14.77;;;11.20;;
29548;SDS011;16487;53.094;8.800;2023-06-22T04:05:57;12.83;;;9.67;;
29548;SDS011;16487;53.094;8.800;2023-06-22T04:08:45;11.17;;;10.07;;
29548;SDS011;16487;53.094;8.800;2023-06-22T04:11:32;12.60;;;10.27;;
29548;SDS011;16487;53.094;8.800;2023-06-22T04:14:20;13.07;;;10.33;;
29548;SDS011;16487;53.094;8.800;2023-06-22T04:17:08;13.90;;;9.80;;
29548;SDS011;16487;53.094;8.800;2023-06-22T04:19:57;16.00;;;9.90;;
29548;SDS011;16487;53.094;8.800;2023-06-22T04:22:44;11.83;;;10.40;;
29548;SDS011;16487;53.094;8.800;2023-06-22T04:25:32;13.17;;;10.43;;
29548;SDS011;16487;53.094;8.800;2023-06-22T04:28:21;12.83;;;10.00;;
29548;SDS011;16487;53.094;8.800;2023-06-22T04:31:08;12.03;;;10.70;;
29548;SDS011;16487;53.094;8.800;2023-06-22T04:33:56;13.60;;;11.10;;
29548;SDS011;16487;53.094;8.800;2023-06-22T04:36:45;13.07;;;10.97;;
29548;SDS011;16487;53.094;8.800;2023-06-22T04:39:33;12.40;;;9.70;;
29548;SDS011;16487;53.094;8.800;2023-06-22T04:42:20;16.80;;;10.87;;
29548;SDS011;16487;53.094;8.800;2023-06-22T04:45:08;12.80;;;10.10;;
29548;SDS011;16487;53.094;8.800;2023-06-22T04:47:57;15.53;;;11.23;;
29548;SDS011;16487;53.094;8.800;2023-06-22T04:50:44;13.83;;;11.17;;
29548;SDS011;16487;53.094;8.800;2023-06-22T04:53:33;14.00;;;10.80;;
29548;SDS011;16487;53.094;8.800;2023-06-22T04:56:21;16.57;;;11.10;;
29548;SDS011;16487;53.094;8.800;2023-06-22T04:59:09;15.83;;;11.30;;
29548;SDS011;16487;53.094;8.800;2023-06-22T05:01:57;12.93;;;11.47;;
29548;SDS011;16487;53.094;8.800;2023-06-22T05:04:46;13.77;;;12.00;;
29548;SDS011;16487;53.094;8.800;2023-06-22T05:07:34;14.20;;;11.33;;
29548;SDS011;16487;53.094;8.800;2023-06-22T05:10:22;17.87;;;11.60;;
29548;SDS011;16487;53.094;8.800;2023-06-22T05:13:10;13.30;;;10.47;;
29548;SDS011;16487;53.094;8.800;2023-06-22T05:15:58;14.90;;;11.07;;
29548;SDS011;16487;53.094;8.800;2023-06-22T05:18:46;14.90;;;12.40;;
29548;SDS011;16487;53.094;8.800;2023-06-22T05:21:33;13.00;;;11.60;;
29548;SDS011;16487;53.094;8.800;2023-06-22T05:24:21;14.97;;;10.80;;
29548;SDS011;16487;53.094;8.800;2023-06-22T05:27:10;15.20;;;11.30;;
29548;SDS011;16487;53.094;8.800;2023-06-22T05:29:58;13.33;;;11.93;;
29548;SDS011;16487;53.094;8.800;2023-06-22T05:32:45;13.43;;;10.03;;
29548;SDS011;16487;53.094;8.800;2023-06-22T05:35:33;16.27;;;11.30;;
29548;SDS011;16487;53.094;8.800;2023-06-22T05:38:21;12.37;;;11.07;;
29548;SDS011;16487;53.094;8.800;2023-06-22T05:41:08;14.87;;;11.07;;
29548;SDS011;16487;53.094;8.800;2023-06-22T05:43:57;19.03;;;13.03;;
29548;SDS011;16487;53.094;8.800;2023-06-22T05:46:45;14.07;;;11.60;;
29548;SDS011;16487;53.094;8.800;2023-06-22T05:49:33;12.20;;;10.00;;
29548;SDS011;16487;53.094;8.800;2023-06-22T05:52:21;12.60;;;11.20;;
29548;SDS011;16487;53.094;8.800;2023-06-22T05:55:08;13.60;;;10.83;;
29548;SDS011;16487;53.094;8.800;2023-06-22T05:57:56;10.90;;;9.20;;
29548;SDS011;16487;53.094;8.800;2023-06-22T06:00:45;11.23;;;8.80;;
29548;SDS011;16487;53.094;8.800;2023-06-22T06:03:33;9.73;;;8.70;;
29548;SDS011;16487;53.094;8.800;2023-06-22T06:06:20;11.60;;;8.77;;
29548;SDS011;16487;53.094;8.800;2023-06-22T06:09:08;11.20;;;8.77;;
29548;SDS011;16487;53.094;8.800;2023-06-22T06:11:56;11.17;;;9.10;;
29548;SDS011;16487;53.094;8.800;2023-06-22T06:14:44;9.83;;;7.67;;
29548;SDS011;16487;53.094;8.800;2023-06-22T06:17:33;10.23;;;9.00;;
29548;SDS011;16487;53.094;8.800;2023-06-22T06:20:22;10.53;;;8.83;;
29548;SDS011;16487;53.094;8.800;2023-06-22T06:23:11;9.27;;;7.57;;
29548;SDS011;16487;53.094;8.800;2023-06-22T06:25:59;9.67;;;8.77;;
29548;SDS011;16487;53.094;8.800;2023-06-22T06:28:46;12.03;;;8.00;;
29548;SDS011;16487;53.094;8.800;2023-06-22T06:31:34;16.00;;;10.67;;
29548;SDS011;16487;53.094;8.800;2023-06-22T06:34:23;12.17;;;9.40;;
29548;SDS011;16487;53.094;8.800;2023-06-22T06:37:11;12.30;;;9.47;;
29548;SDS011;16487;53.094;8.800;2023-06-22T06:39:58;8.40;;;7.30;;
29548;SDS011;16487;53.094;8.800;2023-06-22T06:42:47;9.60;;;8.03;;
29548;SDS011;16487;53.094;8.800;2023-06-22T06:45:36;11.97;;;8.50;;
29548;SDS011;16487;53.094;8.800;2023-06-22T06:48:24;7.27;;;6.57;;
29548;SDS011;16487;53.094;8.800;2023-06-22T06:51:13;11.43;;;9.20;;
29548;SDS011;16487;53.094;8.800;2023-06-22T06:54:01;8.60;;;7.70;;
29548;SDS011;16487;53.094;8.800;2023-06-22T06:56:48;7.47;;;6.77;;
29548;SDS011;16487;53.094;8.800;2023-06-22T06:59:36;8.67;;;7.23;;
29548;SDS011;16487;53.094;8.800;2023-06-22T07:02:25;13.23;;;7.70;;
29548;SDS011;16487;53.094;8.800;2023-06-22T07:05:13;7.67;;;6.97;;
29548;SDS011;16487;53.094;8.800;2023-06-22T07:08:02;8.03;;;7.33;;
29548;SDS011;16487;53.094;8.800;2023-06-22T07:10:50;7.97;;;7.17;;
29548;SDS011;16487;53.094;8.800;2023-06-22T07:13:39;7.47;;;6.77;;
29548;SDS011;16487;53.094;8.800;2023-06-22T07:16:26;7.00;;;6.40;;
29548;SDS011;16487;53.094;8.800;2023-06-22T07:19:14;9.10;;;8.17;;
29548;SDS011;16487;53.094;8.800;2023-06-22T07:22:02;9.93;;;7.27;;
29548;SDS011;16487;53.094;8.800;2023-06-22T07:24:51;6.80;;;6.00;;
29548;SDS011;16487;53.094;8.800;2023-06-22T07:27:39;10.50;;;8.33;;
29548;SDS011;16487;53.094;8.800;2023-06-22T07:30:31;8.87;;;6.70;;
29548;SDS011;16487;53.094;8.800;2023-06-22T07:33:21;7.63;;;6.10;;
29548;SDS011;16487;53.094;8.800;2023-06-22T07:36:08;6.83;;;6.23;;
29548;SDS011;16487;53.094;8.800;2023-06-22T07:38:56;7.33;;;5.97;;
29548;SDS011;16487;53.094;8.800;2023-06-22T07:41:45;9.17;;;6.50;;
29548;SDS011;16487;53.094;8.800;2023-06-22T07:44:33;8.80;;;6.47;;
29548;SDS011;16487;53.094;8.800;2023-06-22T07:47:20;6.87;;;5.50;;
29548;SDS011;16487;53.094;8.800;2023-06-22T07:50:08;6.17;;;5.40;;
29548;SDS011;16487;53.094;8.800;2023-06-22T07:52:56;6.10;;;5.60;;
29548;SDS011;16487;53.094;8.800;2023-06-22T07:55:44;6.53;;;5.60;;
29548;SDS011;16487;53.094;8.800;2023-06-22T07:58:35;5.10;;;4.60;;
29548;SDS011;16487;53.094;8.800;2023-06-22T08:01:23;4.77;;;3.77;;
29548;SDS011;16487;53.094;8.800;2023-06-22T08:04:11;5.47;;;4.47;;
29548;SDS011;16487;53.094;8.800;2023-06-22T08:06:59;4.97;;;4.50;;
29548;SDS011;16487;53.094;8.800;2023-06-22T08:09:47;5.80;;;4.30;;
29548;SDS011;16487;53.094;8.800;2023-06-22T08:12:35;6.23;;;5.23;;
29548;SDS011;16487;53.094;8.800;2023-06-22T08:15:25;5.90;;;5.40;;
29548;SDS011;16487;53.094;8.800;2023-06-22T08:18:14;5.43;;;4.93;;
29548;SDS011;16487;53.094;8.800;2023-06-22T08:21:01;5.90;;;4.60;;
29548;SDS011;16487;53.094;8.800;2023-06-22T08:23:52;4.80;;;4.40;;
29548;SDS011;16487;53.094;8.800;2023-06-22T08:26:42;4.93;;;4.53;;
29548;SDS011;16487;53.094;8.800;2023-06-22T08:29:29;4.87;;;3.90;;
29548;SDS011;16487;53.094;8.800;2023-06-22T08:32:18;4.60;;;4.20;;
29548;SDS011;16487;53.094;8.800;2023-06-22T08:35:07;4.13;;;3.73;;
29548;SDS011;16487;53.094;8.800;2023-06-22T08:37:55;4.53;;;3.93;;
29548;SDS011;16487;53.094;8.800;2023-06-22T08:40:42;4.87;;;4.30;;
29548;SDS011;16487;53.094;8.800;2023-06-22T08:43:30;4.37;;;3.97;;
29548;SDS011;16487;53.094;8.800;2023-06-22T08:46:18;5.40;;;4.10;;
29548;SDS011;16487;53.094;8.800;2023-06-22T08:49:07;3.57;;;3.27;;
29548;SDS011;16487;53.094;8.800;2023-06-22T08:51:55;4.10;;;3.70;;
29548;SDS011;16487;53.094;8.800;2023-06-22T08:54:44;4.10;;;3.40;;
29548;SDS011;16487;53.094;8.800;2023-06-22T08:57:33;3.00;;;2.80;;
29548;SDS011;16487;53.094;8.800;2023-06-22T09:00:21;5.40;;;4.60;;
29548;SDS011;16487;53.094;8.800;2023-06-22T09:03:08;4.40;;;4.10;;
29548;SDS011;16487;53.094;8.800;2023-06-22T09:05:57;4.67;;;4.27;;
29548;SDS011;16487;53.094;8.800;2023-06-22T09:08:45;4.07;;;3.77;;
29548;SDS011;16487;53.094;8.800;2023-06-22T09:11:33;4.33;;;3.57;;
29548;SDS011;16487;53.094;8.800;2023-06-22T09:14:20;3.33;;;2.70;;
29548;SDS011;16487;53.094;8.800;2023-06-22T09:17:08;2.60;;;2.40;;
29548;SDS011;16487;53.094;8.800;2023-06-22T09:19:56;2.73;;;2.53;;
29548;SDS011;16487;53.094;8.800;2023-06-22T09:22:45;2.90;;;2.70;;
29548;SDS011;16487;53.094;8.800;2023-06-22T09:25:33;4.07;;;3.13;;
29548;SDS011;16487;53.094;8.800;2023-06-22T09:28:21;7.77;;;4.17;;
29548;SDS011;16487;53.094;8.800;2023-06-22T09:31:08;3.97;;;3.67;;
29548;SDS011;16487;53.094;8.800;2023-06-22T09:33:56;3.60;;;3.30;;
29548;SDS011;16487;53.094;8.800;2023-06-22T09:36:44;3.27;;;3.07;;
29548;SDS011;16487;53.094;8.800;2023-06-22T09:39:33;3.23;;;2.93;;
29548;SDS011;16487;53.094;8.800;2023-06-22T09:42:20;3.70;;;3.40;;
29548;SDS011;16487;53.094;8.800;2023-06-22T09:45:08;4.10;;;3.80;;
29548;SDS011;16487;53.094;8.800;2023-06-22T09:47:56;3.83;;;3.53;;
29548;SDS011;16487;53.094;8.800;2023-06-22T09:50:44;4.30;;;4.00;;
29548;SDS011;16487;53.094;8.800;2023-06-22T09:53:32;3.90;;;3.60;;
29548;SDS011;16487;53.094;8.800;2023-06-22T09:56:21;3.37;;;3.17;;
29548;SDS011;16487;53.094;8.800;2023-06-22T09:59:09;3.70;;;3.50;;
29548;SDS011;16487;53.094;8.800;2023-06-22T10:02:05;4.17;;;3.80;;
29548;SDS011;16487;53.094;8.800;2023-06-22T10:04:53;3.87;;;3.57;;
29548;SDS011;16487;53.094;8.800;2023-06-22T10:07:41;4.10;;;3.83;;
29548;SDS011;16487;53.094;8.800;2023-06-22T10:10:30;3.80;;;3.50;;
29548;SDS011;16487;53.094;8.800;2023-06-22T10:13:19;7.80;;;4.10;;
29548;SDS011;16487;53.094;8.800;2023-06-22T10:16:06;3.80;;;3.50;;
29548;SDS011;16487;53.094;8.800;2023-06-22T10:18:54;4.50;;;4.20;;
29548;SDS011;16487;53.094;8.800;2023-06-22T10:21:42;3.87;;;3.60;;
29548;SDS011;16487;53.094;8.800;2023-06-22T10:24:30;4.60;;;4.30;;
29548;SDS011;16487;53.094;8.800;2023-06-22T10:27:17;3.93;;;3.63;;
29548;SDS011;16487;53.094;8.800;2023-06-22T10:30:07;3.13;;;2.93;;
29548;SDS011;16487;53.094;8.800;2023-06-22T10:32:56;3.53;;;3.33;;
29548;SDS011;16487;53.094;8.800;2023-06-22T10:35:44;3.97;;;3.73;;
29548;SDS011;16487;53.094;8.800;2023-06-22T10:38:32;3.83;;;3.57;;
29548;SDS011;16487;53.094;8.800;2023-06-22T10:41:20;4.03;;;3.77;;
29548;SDS011;16487;53.094;8.800;2023-06-22T10:44:08;4.50;;;4.20;;
29548;SDS011;16487;53.094;8.800;2023-06-22T10:46:57;4.53;;;4.13;;
29548;SDS011;16487;53.094;8.800;2023-06-22T10:49:46;3.73;;;3.43;;
29548;SDS011;16487;53.094;8.800;2023-06-22T10:52:33;4.33;;;4.03;;
29548;SDS011;16487;53.094;8.800;2023-06-22T10:55:21;4.23;;;4.00;;
29548;SDS011;16487;53.094;8.800;2023-06-22T10:58:09;4.67;;;4.37;;
29548;SDS011;16487;53.094;8.800;2023-06-22T11:00:59;3.77;;;3.50;;
29548;SDS011;16487;53.094;8.800;2023-06-22T11:03:48;4.40;;;4.17;;
29548;SDS011;16487;53.094;8.800;2023-06-22T11:06:36;4.97;;;4.47;;
29548;SDS011;16487;53.094;8.800;2023-06-22T11:09:23;4.53;;;4.30;;
29548;SDS011;16487;53.094;8.800;2023-06-22T11:12:16;3.60;;;3.40;;
29548;SDS011;16487;53.094;8.800;2023-06-22T11:15:03;3.90;;;3.70;;
29548;SDS011;16487;53.094;8.800;2023-06-22T11:17:52;3.50;;;3.30;;
29548;SDS011;16487;53.094;8.800;2023-06-22T11:20:41;4.60;;;4.30;;
29548;SDS011;16487;53.094;8.800;2023-06-22T11:23:29;4.20;;;3.90;;
29548;SDS011;16487;53.094;8.800;2023-06-22T11:26:16;3.80;;;3.60;;
29548;SDS011;16487;53.094;8.800;2023-06-22T11:29:04;4.40;;;4.10;;
29548;SDS011;16487;53.094;8.800;2023-06-22T11:31:52;3.90;;;3.70;;
29548;SDS011;16487;53.094;8.800;2023-06-22T11:34:40;4.70;;;4.30;;
29548;SDS011;16487;53.094;8.800;2023-06-22T11:37:29;4.97;;;4.60;;
29548;SDS011;16487;53.094;8.800;2023-06-22T11:40:16;4.33;;;4.07;;
29548;SDS011;16487;53.094;8.800;2023-06-22T11:43:04;4.70;;;4.40;;
29548;SDS011;16487;53.094;8.800;2023-06-22T11:45:52;4.20;;;4.00;;
29548;SDS011;16487;53.094;8.800;2023-06-22T11:48:39;5.03;;;3.80;;
29548;SDS011;16487;53.094;8.800;2023-06-22T11:51:27;4.60;;;4.30;;
29548;SDS011;16487;53.094;8.800;2023-06-22T11:54:16;4.07;;;3.77;;
29548;SDS011;16487;53.094;8.800;2023-06-22T11:57:05;4.50;;;4.20;;
29548;SDS011;16487;53.094;8.800;2023-06-22T11:59:53;4.50;;;4.30;;
29548;SDS011;16487;53.094;8.800;2023-06-22T12:02:40;4.77;;;4.47;;
29548;SDS011;16487;53.094;8.800;2023-06-22T12:05:28;3.87;;;3.67;;
29548;SDS011;16487;53.094;8.800;2023-06-22T12:08:16;3.80;;;3.60;;
29548;SDS011;16487;53.094;8.800;2023-06-22T12:11:05;4.70;;;4.40;;
29548;SDS011;16487;53.094;8.800;2023-06-22T12:13:52;3.80;;;3.60;;
29548;SDS011;16487;53.094;8.800;2023-06-22T12:16:40;4.47;;;4.17;;
29548;SDS011;16487;53.094;8.800;2023-06-22T12:19:28;4.20;;;3.90;;
29548;SDS011;16487;53.094;8.800;2023-06-22T12:22:16;3.77;;;3.50;;
29548;SDS011;16487;53.094;8.800;2023-06-22T12:25:03;4.20;;;3.90;;
29548;SDS011;16487;53.094;8.800;2023-06-22T12:27:54;4.27;;;4.07;;
29548;SDS011;16487;53.094;8.800;2023-06-22T12:30:41;3.83;;;3.63;;
29548;SDS011;16487;53.094;8.800;2023-06-22T12:33:29;4.00;;;3.80;;
29548;SDS011;16487;53.094;8.800;2023-06-22T12:36:16;4.30;;;4.00;;
29548;SDS011;16487;53.094;8.800;2023-06-22T12:39:04;3.70;;;3.40;;
29548;SDS011;16487;53.094;8.800;2023-06-22T12:41:56;3.97;;;3.67;;
29548;SDS011;16487;53.094;8.800;2023-06-22T12:44:49;4.10;;;3.80;;
29548;SDS011;16487;53.094;8.800;2023-06-22T12:47:37;4.03;;;3.80;;
29548;SDS011;16487;53.094;8.800;2023-06-22T12:50:25;3.70;;;3.40;;
29548;SDS011;16487;53.094;8.800;2023-06-22T12:53:12;5.03;;;4.63;;
29548;SDS011;16487;53.094;8.800;2023-06-22T12:56:00;4.20;;;3.90;;
29548;SDS011;16487;53.094;8.800;2023-06-22T12:58:48;4.07;;;3.83;;
29548;SDS011;16487;53.094;8.800;2023-06-22T13:01:37;4.00;;;3.70;;
29548;SDS011;16487;53.094;8.800;2023-06-22T13:04:24;4.50;;;4.20;;
29548;SDS011;16487;53.094;8.800;2023-06-22T13:07:12;4.10;;;3.80;;
29548;SDS011;16487;53.094;8.800;2023-06-22T13:10:09;3.70;;;3.50;;
29548;SDS011;16487;53.094;8.800;2023-06-22T13:12:57;4.83;;;4.40;;
29548;SDS011;16487;53.094;8.800;2023-06-22T13:15:45;6.30;;;4.43;;
29548;SDS011;16487;53.094;8.800;2023-06-22T13:18:34;4.37;;;4.07;;
29548;SDS011;16487;53.094;8.800;2023-06-22T13:21:21;4.40;;;4.00;;
29548;SDS011;16487;53.094;8.800;2023-06-22T13:24:11;4.03;;;3.83;;
29548;SDS011;16487;53.094;8.800;2023-06-22T13:26:59;4.27;;;3.90;;
29548;SDS011;16487;53.094;8.800;2023-06-22T13:29:47;5.87;;;4.33;;
29548;SDS011;16487;53.094;8.800;2023-06-22T13:32:34;4.33;;;3.73;;
29548;SDS011;16487;53.094;8.800;2023-06-22T13:35:23;3.80;;;3.50;;
29548;SDS011;16487;53.094;8.800;2023-06-22T13:38:11;4.60;;;4.20;;
29548;SDS011;16487;53.094;8.800;2023-06-22T13:40:59;4.20;;;3.90;;
29548;SDS011;16487;53.094;8.800;2023-06-22T13:43:46;4.67;;;4.37;;
29548;SDS011;16487;53.094;8.800;2023-06-22T13:46:36;5.77;;;5.37;;
29548;SDS011;16487;53.094;8.800;2023-06-22T13:49:24;4.40;;;4.00;;
29548;SDS011;16487;53.094;8.800;2023-06-22T13:52:13;4.40;;;4.00;;
29548;SDS011;16487;53.094;8.800;2023-06-22T13:55:01;4.47;;;4.07;;
29548;SDS011;16487;53.094;8.800;2023-06-22T13:57:48;4.27;;;3.97;;
29548;SDS011;16487;53.094;8.800;2023-06-22T14:00:36;4.13;;;3.83;;
29548;SDS011;16487;53.094;8.800;2023-06-22T14:03:24;4.73;;;4.43;;
29548;SDS011;16487;53.094;8.800;2023-06-22T14:06:12;4.63;;;4.33;;
29548;SDS011;16487;53.094;8.800;2023-06-22T14:09:01;4.73;;;4.40;;
29548;SDS011;16487;53.094;8.800;2023-06-22T14:11:49;4.73;;;4.27;;
29548;SDS011;16487;53.094;8.800;2023-06-22T14:14:37;4.77;;;4.47;;
29548;SDS011;16487;53.094;8.800;2023-06-22T14:17:24;4.47;;;4.13;;
29548;SDS011;16487;53.094;8.800;2023-06-22T14:20:12;4.40;;;4.00;;
29548;SDS011;16487;53.094;8.800;2023-06-22T14:23:01;4.90;;;4.27;;
29548;SDS011;16487;53.094;8.800;2023-06-22T14:25:51;4.73;;;4.37;;
29548;SDS011;16487;53.094;8.800;2023-06-22T14:28:39;5.20;;;4.63;;
29548;SDS011;16487;53.094;8.800;2023-06-22T14:31:27;4.47;;;4.07;;
29548;SDS011;16487;53.094;8.800;2023-06-22T14:34:14;10.70;;;8.70;;
29548;SDS011;16487;53.094;8.800;2023-06-22T14:37:03;4.53;;;4.17;;
29548;SDS011;16487;53.094;8.800;2023-06-22T14:39:51;5.27;;;4.87;;
29548;SDS011;16487;53.094;8.800;2023-06-22T14:42:39;4.80;;;4.50;;
29548;SDS011;16487;53.094;8.800;2023-06-22T14:45:27;4.73;;;4.33;;
29548;SDS011;16487;53.094;8.800;2023-06-22T14:48:15;5.27;;;4.87;;
29548;SDS011;16487;53.094;8.800;2023-06-22T14:51:02;5.07;;;4.67;;
29548;SDS011;16487;53.094;8.800;2023-06-22T14:53:50;5.20;;;4.67;;
29548;SDS011;16487;53.094;8.800;2023-06-22T14:56:38;5.50;;;5.00;;
29548;SDS011;16487;53.094;8.800;2023-06-22T14:59:27;4.30;;;4.00;;
29548;SDS011;16487;53.094;8.800;2023-06-22T15:02:14;5.03;;;4.63;;
29548;SDS011;16487;53.094;8.800;2023-06-22T15:05:02;6.20;;;4.40;;
29548;SDS011;16487;53.094;8.800;2023-06-22T15:07:50;5.90;;;5.40;;
29548;SDS011;16487;53.094;8.800;2023-06-22T15:10:38;6.17;;;5.67;;
29548;SDS011;16487;53.094;8.800;2023-06-22T15:13:26;5.27;;;4.77;;
29548;SDS011;16487;53.094;8.800;2023-06-22T15:16:15;5.60;;;5.20;;
29548;SDS011;16487;53.094;8.800;2023-06-22T15:19:02;4.70;;;4.30;;
29548;SDS011;16487;53.094;8.800;2023-06-22T15:21:50;6.17;;;5.57;;
29548;SDS011;16487;53.094;8.800;2023-06-22T15:24:38;5.60;;;5.03;;
29548;SDS011;16487;53.094;8.800;2023-06-22T15:27:25;4.13;;;3.73;;
29548;SDS011;16487;53.094;8.800;2023-06-22T15:30:13;5.47;;;5.10;;
29548;SDS011;16487;53.094;8.800;2023-06-22T15:33:02;6.20;;;5.60;;
29548;SDS011;16487;53.094;8.800;2023-06-22T15:35:50;5.90;;;5.30;;
29548;SDS011;16487;53.094;8.800;2023-06-22T15:38:37;6.03;;;5.53;;
29548;SDS011;16487;53.094;8.800;2023-06-22T15:41:25;5.50;;;5.00;;
29548;SDS011;16487;53.094;8.800;2023-06-22T15:44:12;5.50;;;5.10;;
29548;SDS011;16487;53.094;8.800;2023-06-22T15:47:00;6.73;;;6.13;;
29548;SDS011;16487;53.094;8.800;2023-06-22T15:49:49;7.00;;;6.30;;
29548;SDS011;16487;53.094;8.800;2023-06-22T15:52:38;6.73;;;5.47;;
29548;SDS011;16487;53.094;8.800;2023-06-22T15:55:26;6.10;;;5.50;;
29548;SDS011;16487;53.094;8.800;2023-06-22T15:58:14;6.37;;;5.77;;
29548;SDS011;16487;53.094;8.800;2023-06-22T16:01:02;6.73;;;6.07;;
29548;SDS011;16487;53.094;8.800;2023-06-22T16:03:49;7.73;;;6.13;;
29548;SDS011;16487;53.094;8.800;2023-06-22T16:06:39;6.67;;;6.07;;
29548;SDS011;16487;53.094;8.800;2023-06-22T16:09:26;7.87;;;6.90;;
29548;SDS011;16487;53.094;8.800;2023-06-22T16:12:14;8.23;;;7.53;;
29548;SDS011;16487;53.094;8.800;2023-06-22T16:15:02;8.17;;;7.33;;
29548;SDS011;16487;53.094;8.800;2023-06-22T16:17:51;7.60;;;7.00;;
29548;SDS011;16487;53.094;8.800;2023-06-22T16:20:38;9.10;;;8.20;;
29548;SDS011;16487;53.094;8.800;2023-06-22T16:23:28;8.80;;;8.00;;
29548;SDS011;16487;53.094;8.800;2023-06-22T16:26:15;9.67;;;8.87;;
29548;SDS011;16487;53.094;8.800;2023-06-22T16:29:03;11.20;;;8.53;;
29548;SDS011;16487;53.094;8.800;2023-06-22T16:31:51;9.10;;;8.30;;
29548;SDS011;16487;53.094;8.800;2023-06-22T16:34:39;10.10;;;8.80;;
29548;SDS011;16487;53.094;8.800;2023-06-22T16:37:26;8.87;;;7.97;;
29548;SDS011;16487;53.094;8.800;2023-06-22T16:40:15;9.23;;;8.43;;
29548;SDS011;16487;53.094;8.800;2023-06-22T16:43:03;10.97;;;8.27;;
29548;SDS011;16487;53.094;8.800;2023-06-22T16:45:51;9.83;;;8.83;;
29548;SDS011;16487;53.094;8.800;2023-06-22T16:48:39;9.23;;;8.33;;